Time,TemperatureF,DewpointF,PressureIn,WindDirection,WindDirectionDegrees,WindSpeedMPH,WindSpeedGustMPH,Humidity,HourlyPrecipIn,Conditions,Clouds,dailyrainin,SolarRadiationWatts/m^2,SoftwareType,DateUTC
2013-05-22 00:42:00,39.0,33.0,-100.00,WSW,246,0.0,2.0,78,0.00,,,0.00,0.000000,,2013-05-22 08:42:00,
2013-05-22 01:42:00,37.0,31.0,-100.00,SE,143,0.0,3.0,76,-99.99,,,0.00,0.000000,,2013-05-22 09:42:00,
2013-05-22 02:42:00,36.0,31.0,-100.00,SSE,155,0.0,1.0,83,-99.99,,,0.00,0.000000,,2013-05-22 10:42:00,
2013-05-22 02:52:00,36.0,31.0,-100.00,SSE,155,0.0,1.0,83,-99.99,,,0.00,0.000000,,2013-05-22 10:52:00,
2013-05-22 03:42:00,36.0,31.0,-100.00,SSE,158,0.0,1.0,84,-99.99,,,0.00,0.000000,,2013-05-22 11:42:00,
2013-05-22 04:42:00,36.0,31.0,-100.00,SSE,154,1.0,3.0,83,-99.99,,,0.00,0.000000,,2013-05-22 12:42:00,
2013-05-22 05:42:00,41.0,26.0,-100.00,SSE,151,1.0,5.0,54,-99.99,,,0.00,7.000000,,2013-05-22 13:42:00,
2013-05-22 06:42:00,45.0,24.0,-100.00,SE,137,1.0,4.0,44,-99.99,,,0.00,35.000000,,2013-05-22 14:42:00,
2013-05-22 06:52:00,45.0,24.0,-100.00,SE,137,1.0,4.0,44,-99.99,,,0.00,35.000000,,2013-05-22 14:52:00,
2013-05-22 07:01:00,45.0,24.0,-100.00,SE,137,1.0,4.0,44,-99.99,,,0.00,35.000000,,2013-05-22 15:01:00,
2013-05-22 07:11:00,45.0,24.0,-100.00,SE,137,1.0,4.0,44,-99.99,,,0.00,35.000000,,2013-05-22 15:11:00,
2013-05-22 07:21:00,45.0,24.0,-100.00,SE,137,1.0,4.0,44,-99.99,,,0.00,35.000000,,2013-05-22 15:21:00,
2013-05-22 07:43:00,52.0,26.0,-100.00,SE,140,3.0,7.0,37,0.00,,,0.00,51.000000,,2013-05-22 15:43:00,
2013-05-22 07:53:00,52.0,26.0,-100.00,SE,140,3.0,7.0,37,0.00,,,0.00,51.000000,,2013-05-22 15:53:00,
2013-05-22 08:03:00,52.0,26.0,-100.00,SE,140,3.0,7.0,37,0.00,,,0.00,51.000000,,2013-05-22 16:03:00,
2013-05-22 08:12:00,52.0,26.0,-100.00,SE,140,3.0,7.0,37,0.00,,,0.00,51.000000,,2013-05-22 16:12:00,
2013-05-22 08:22:00,52.0,26.0,-100.00,SE,140,3.0,7.0,37,0.00,,,0.00,51.000000,,2013-05-22 16:22:00,
2013-05-22 08:42:00,52.0,29.0,-100.00,SE,131,2.0,5.0,41,0.00,,,0.00,100.000000,,2013-05-22 16:42:00,
2013-05-22 08:52:00,52.0,29.0,-100.00,SE,131,2.0,5.0,41,0.00,,,0.00,100.000000,,2013-05-22 16:52:00,
2013-05-22 09:02:00,52.0,29.0,-100.00,SE,131,2.0,5.0,41,0.00,,,0.00,100.000000,,2013-05-22 17:02:00,
2013-05-22 09:11:00,52.0,29.0,-100.00,SE,131,2.0,5.0,41,0.00,,,0.00,100.000000,,2013-05-22 17:11:00,
2013-05-22 09:22:00,52.0,29.0,-100.00,SE,131,2.0,5.0,41,0.00,,,0.00,100.000000,,2013-05-22 17:22:00,
2013-05-22 09:42:00,52.0,31.0,-100.00,SE,140,4.0,8.0,45,0.00,,,0.00,143.000000,,2013-05-22 17:42:00,
2013-05-22 09:53:00,52.0,31.0,-100.00,SE,140,4.0,8.0,45,0.00,,,0.00,143.000000,,2013-05-22 17:53:00,
2013-05-22 10:02:00,52.0,31.0,-100.00,SE,140,4.0,8.0,45,0.00,,,0.00,143.000000,,2013-05-22 18:02:00,
2013-05-22 10:14:00,52.0,31.0,-100.00,SE,140,4.0,8.0,45,0.00,,,0.00,143.000000,,2013-05-22 18:14:00,
2013-05-22 10:22:00,52.0,31.0,-100.00,SE,140,4.0,8.0,45,0.00,,,0.00,143.000000,,2013-05-22 18:22:00,
2013-05-22 10:42:00,52.0,31.0,-100.00,SE,144,5.0,10.0,45,0.00,,,0.00,225.000000,,2013-05-22 18:42:00,
2013-05-22 10:52:00,52.0,31.0,-100.00,SE,144,5.0,10.0,45,0.00,,,0.00,225.000000,,2013-05-22 18:52:00,
2013-05-22 11:02:00,52.0,31.0,-100.00,SE,144,5.0,10.0,45,0.00,,,0.00,225.000000,,2013-05-22 19:02:00,
2013-05-22 11:11:00,52.0,31.0,-100.00,SE,144,5.0,10.0,45,0.00,,,0.00,225.000000,,2013-05-22 19:11:00,
2013-05-22 11:21:00,52.0,31.0,-100.00,SE,144,5.0,10.0,45,0.00,,,0.00,225.000000,,2013-05-22 19:21:00,
2013-05-22 11:42:00,52.0,31.0,-100.00,SE,140,4.0,8.0,44,0.00,,,0.00,293.000000,,2013-05-22 19:42:00,
2013-05-22 11:52:00,52.0,31.0,-100.00,SE,140,4.0,8.0,44,0.00,,,0.00,293.000000,,2013-05-22 19:52:00,
2013-05-22 12:02:00,52.0,31.0,-100.00,SE,140,4.0,8.0,44,0.00,,,0.00,293.000000,,2013-05-22 20:02:00,
2013-05-22 12:11:00,52.0,31.0,-100.00,SE,140,4.0,8.0,44,0.00,,,0.00,293.000000,,2013-05-22 20:11:00,
2013-05-22 12:21:00,52.0,31.0,-100.00,SE,140,4.0,8.0,44,0.00,,,0.00,293.000000,,2013-05-22 20:21:00,
2013-05-22 12:42:00,54.0,32.0,-100.00,SE,144,4.0,7.0,44,0.00,,,0.00,249.000000,,2013-05-22 20:42:00,
2013-05-22 12:52:00,54.0,32.0,-100.00,SE,144,4.0,7.0,44,0.00,,,0.00,249.000000,,2013-05-22 20:52:00,
2013-05-22 13:01:00,54.0,32.0,-100.00,SE,144,4.0,7.0,44,0.00,,,0.00,249.000000,,2013-05-22 21:01:00,
2013-05-22 13:11:00,54.0,32.0,-100.00,SE,144,4.0,7.0,44,0.00,,,0.00,249.000000,,2013-05-22 21:11:00,
2013-05-22 13:21:00,54.0,32.0,-100.00,SE,144,4.0,7.0,44,0.00,,,0.00,249.000000,,2013-05-22 21:21:00,
2013-05-22 13:42:00,52.0,36.0,-100.00,SSE,149,5.0,9.0,54,0.00,,,0.00,368.000000,,2013-05-22 21:42:00,
2013-05-22 13:53:00,52.0,36.0,-100.00,SSE,149,5.0,9.0,54,0.00,,,0.00,368.000000,,2013-05-22 21:53:00,
2013-05-22 14:03:00,52.0,36.0,-100.00,SSE,149,5.0,9.0,54,0.00,,,0.00,368.000000,,2013-05-22 22:03:00,
2013-05-22 14:12:00,52.0,36.0,-100.00,SSE,149,5.0,9.0,54,0.00,,,0.00,368.000000,,2013-05-22 22:12:00,
2013-05-22 14:22:00,52.0,36.0,-100.00,SSE,149,5.0,9.0,54,0.00,,,0.00,368.000000,,2013-05-22 22:22:00,
2013-05-22 14:42:00,52.0,33.0,-100.00,SSE,147,4.0,7.0,48,0.00,,,-99.99,458.000000,,2013-05-22 22:42:00,
2013-05-22 14:52:00,52.0,33.0,-100.00,SSE,147,4.0,7.0,48,0.00,,,-99.99,458.000000,,2013-05-22 22:52:00,
2013-05-22 15:02:00,52.0,33.0,-100.00,SSE,147,4.0,7.0,48,0.00,,,-99.99,458.000000,,2013-05-22 23:02:00,
2013-05-22 15:12:00,52.0,33.0,-100.00,SSE,147,4.0,7.0,48,0.00,,,-99.99,458.000000,,2013-05-22 23:12:00,
2013-05-22 15:21:00,52.0,33.0,-100.00,SSE,147,4.0,7.0,48,0.00,,,-99.99,458.000000,,2013-05-22 23:21:00,
2013-05-22 15:42:00,54.0,33.0,-100.00,SSE,155,5.0,10.0,45,0.00,,,0.00,467.000000,,2013-05-22 23:42:00,
2013-05-22 15:52:00,54.0,33.0,-100.00,SSE,155,5.0,10.0,45,0.00,,,0.00,467.000000,,2013-05-22 23:52:00,
2013-05-22 16:01:00,54.0,33.0,-100.00,SSE,155,5.0,10.0,45,0.00,,,0.00,467.000000,,2013-05-23 00:01:00,
2013-05-22 16:11:00,54.0,33.0,-100.00,SSE,155,5.0,10.0,45,0.00,,,0.00,467.000000,,2013-05-23 00:11:00,
2013-05-22 16:21:00,54.0,33.0,-100.00,SSE,155,5.0,10.0,45,0.00,,,0.00,467.000000,,2013-05-23 00:21:00,
2013-05-22 16:42:00,55.0,33.0,-100.00,SE,146,5.0,10.0,43,0.00,,,0.00,424.000000,,2013-05-23 00:42:00,
2013-05-22 16:52:00,55.0,33.0,-100.00,SE,146,5.0,10.0,43,0.00,,,0.00,424.000000,,2013-05-23 00:52:00,
2013-05-22 17:01:00,55.0,33.0,-100.00,SE,146,5.0,10.0,43,0.00,,,0.00,424.000000,,2013-05-23 01:01:00,
2013-05-22 17:11:00,55.0,33.0,-100.00,SE,146,5.0,10.0,43,0.00,,,0.00,424.000000,,2013-05-23 01:11:00,
2013-05-22 17:21:00,55.0,33.0,-100.00,SE,146,5.0,10.0,43,0.00,,,0.00,424.000000,,2013-05-23 01:21:00,
2013-05-22 17:42:00,55.0,34.0,-100.00,SE,145,4.0,8.0,44,0.00,,,0.00,322.000000,,2013-05-23 01:42:00,
2013-05-22 17:52:00,55.0,34.0,-100.00,SE,145,4.0,8.0,44,0.00,,,0.00,322.000000,,2013-05-23 01:52:00,
2013-05-22 18:01:00,55.0,34.0,-100.00,SE,145,4.0,8.0,44,0.00,,,0.00,322.000000,,2013-05-23 02:01:00,
2013-05-22 18:11:00,55.0,34.0,-100.00,SE,145,4.0,8.0,44,0.00,,,0.00,322.000000,,2013-05-23 02:11:00,
2013-05-22 18:21:00,55.0,34.0,-100.00,SE,145,4.0,8.0,44,0.00,,,0.00,322.000000,,2013-05-23 02:21:00,
2013-05-22 19:01:00,55.0,30.0,-100.00,SE,135,4.0,7.0,37,0.00,,,0.00,464.000000,,2013-05-23 03:01:00,
2013-05-22 19:11:00,55.0,30.0,-100.00,SE,135,4.0,7.0,37,0.00,,,0.00,464.000000,,2013-05-23 03:11:00,
2013-05-22 19:21:00,55.0,30.0,-100.00,SE,135,4.0,7.0,37,0.00,,,0.00,464.000000,,2013-05-23 03:21:00,
2013-05-22 19:43:00,57.0,32.0,-100.00,SE,136,3.0,5.0,38,0.00,,,0.00,381.000000,,2013-05-23 03:43:00,
2013-05-22 19:53:00,57.0,32.0,-100.00,SE,136,3.0,5.0,38,0.00,,,0.00,381.000000,,2013-05-23 03:53:00,
2013-05-22 20:02:00,57.0,32.0,-100.00,SE,136,3.0,5.0,38,0.00,,,0.00,381.000000,,2013-05-23 04:02:00,
2013-05-22 20:12:00,57.0,32.0,-100.00,SE,136,3.0,5.0,38,0.00,,,0.00,381.000000,,2013-05-23 04:12:00,
2013-05-22 20:22:00,57.0,32.0,-100.00,SE,136,3.0,5.0,38,0.00,,,0.00,381.000000,,2013-05-23 04:22:00,
2013-05-22 20:43:00,54.0,42.0,-100.00,ENE,72,1.0,4.0,65,0.00,,,0.00,173.000000,,2013-05-23 04:43:00,
2013-05-22 20:52:00,54.0,42.0,-100.00,ENE,72,1.0,4.0,65,0.00,,,0.00,173.000000,,2013-05-23 04:52:00,
2013-05-22 21:02:00,54.0,42.0,-100.00,ENE,72,1.0,4.0,65,0.00,,,0.00,173.000000,,2013-05-23 05:02:00,
2013-05-22 21:11:00,54.0,42.0,-100.00,ENE,72,1.0,4.0,65,0.00,,,0.00,173.000000,,2013-05-23 05:11:00,
2013-05-22 21:21:00,54.0,42.0,-100.00,ENE,72,1.0,4.0,65,0.00,,,0.00,173.000000,,2013-05-23 05:21:00,
2013-05-22 21:43:00,48.0,37.0,-100.00,SE,128,2.0,5.0,66,0.00,,,0.00,20.000000,,2013-05-23 05:43:00,
2013-05-22 21:52:00,48.0,37.0,-100.00,SE,128,2.0,5.0,66,0.00,,,0.00,20.000000,,2013-05-23 05:52:00,
2013-05-22 22:02:00,48.0,37.0,-100.00,SE,128,2.0,5.0,66,0.00,,,0.00,20.000000,,2013-05-23 06:02:00,
2013-05-22 22:11:00,48.0,37.0,-100.00,SE,128,2.0,5.0,66,0.00,,,0.00,20.000000,,2013-05-23 06:11:00,
2013-05-22 22:21:00,48.0,37.0,-100.00,SE,128,2.0,5.0,66,0.00,,,0.00,20.000000,,2013-05-23 06:21:00,
2013-05-22 22:42:00,45.0,37.0,-100.00,SE,143,2.0,4.0,75,0.00,,,0.00,7.000000,,2013-05-23 06:42:00,
2013-05-22 22:52:00,45.0,37.0,-100.00,SE,143,2.0,4.0,75,0.00,,,0.00,7.000000,,2013-05-23 06:52:00,
2013-05-22 23:02:00,45.0,37.0,-100.00,SE,143,2.0,4.0,75,0.00,,,0.00,7.000000,,2013-05-23 07:02:00,
2013-05-22 23:11:00,45.0,37.0,-100.00,SE,143,2.0,4.0,75,0.00,,,0.00,7.000000,,2013-05-23 07:11:00,
2013-05-22 23:21:00,45.0,37.0,-100.00,SE,143,2.0,4.0,75,0.00,,,0.00,7.000000,,2013-05-23 07:21:00,
2013-05-22 23:42:00,43.0,37.0,-100.00,SSE,151,1.0,2.0,80,0.00,,,0.00,0.000000,,2013-05-23 07:42:00,
2013-05-22 23:59:00,43.0,37.0,-100.00,SSE,151,1.0,2.0,80,0.00,,,0.00,0.000000,,2013-05-23 07:59:00,